Time;durP1;ratioP1;P1;durP2;ratioP2;P2;SDS_P1;SDS_P2;PMS_P1;PMS_P2;Temp;Humidity;BMP_temperature;BMP_pressure;BME280_temperature;BME280_humidity;BME280_pressure;Samples;Min_cycle;Max_cycle;Signal;HPM_P1;HPM_P2
2021/05/29 00:02:16;;;;;;;2.60;2.40;;;11.60;84.50;;;;;;3579405;40;20496;-67
2021/05/29 00:04:42;;;;;;;2.53;2.20;;;11.60;84.50;;;;;;3577733;40;20390;-66
2021/05/29 00:07:08;;;;;;;4.13;2.42;;;11.60;84.40;;;;;;3575599;40;20665;-67
2021/05/29 00:09:35;;;;;;;6.05;2.60;;;11.50;84.30;;;;;;3573218;40;20080;-66
2021/05/29 00:12:02;;;;;;;3.72;2.35;;;11.50;84.70;;;;;;3572509;40;20029;-67
2021/05/29 00:14:30;;;;;;;3.10;2.65;;;11.40;84.70;;;;;;3571471;40;20611;-67
2021/05/29 00:16:55;;;;;;;2.50;2.25;;;11.40;84.80;;;;;;3570101;40;20020;-68
2021/05/29 00:19:21;;;;;;;2.97;2.20;;;11.40;84.60;;;;;;3572624;40;20033;-67
2021/05/29 00:21:47;;;;;;;2.88;2.60;;;11.30;84.70;;;;;;3574108;40;20424;-67
2021/05/29 00:24:12;;;;;;;2.67;2.40;;;11.30;84.50;;;;;;3578012;40;20051;-67
2021/05/29 00:26:38;;;;;;;3.30;2.70;;;11.30;84.30;;;;;;3572977;40;20162;-69
2021/05/29 00:29:04;;;;;;;5.10;3.00;;;11.30;84.20;;;;;;3567961;40;20056;-68
2021/05/29 00:31:30;;;;;;;2.85;2.40;;;11.20;84.30;;;;;;3575121;40;20036;-67
2021/05/29 00:33:56;;;;;;;3.15;2.78;;;11.10;84.20;;;;;;3576935;40;20040;-67
2021/05/29 00:36:21;;;;;;;2.85;2.53;;;11.10;83.90;;;;;;3576593;40;20440;-67
2021/05/29 00:38:48;;;;;;;3.35;2.50;;;11.10;84.30;;;;;;3576935;40;20040;-68
2021/05/29 00:41:15;;;;;;;3.53;2.38;;;11.00;84.30;;;;;;3574217;40;20037;-67
2021/05/29 00:43:41;;;;;;;2.78;2.20;;;11.00;84.00;;;;;;3570591;40;20415;-67
2021/05/29 00:46:08;;;;;;;2.63;2.10;;;11.00;84.00;;;;;;3572443;40;20036;-68
2021/05/29 00:48:34;;;;;;;3.92;2.00;;;10.90;84.20;;;;;;3574580;40;20102;-68
2021/05/29 00:51:00;;;;;;;2.60;2.05;;;10.90;84.20;;;;;;3573332;40;20013;-68
2021/05/29 00:53:31;;;;;;;2.97;1.70;;;10.90;83.70;;;;;;3572065;40;20055;-68
2021/05/29 00:55:58;;;;;;;3.92;2.53;;;10.80;84.10;;;;;;3570784;40;20314;-68
2021/05/29 00:58:25;;;;;;;3.75;2.10;;;10.80;84.10;;;;;;3573118;40;20028;-72
2021/05/29 01:00:51;;;;;;;2.90;2.25;;;10.70;84.40;;;;;;3573851;40;20037;-73
2021/05/29 01:03:17;;;;;;;2.67;1.98;;;10.70;84.50;;;;;;3576572;40;20145;-73
2021/05/29 01:05:44;;;;;;;2.70;1.95;;;10.70;84.10;;;;;;3577360;39;20078;-68
2021/05/29 01:08:10;;;;;;;2.22;1.77;;;10.70;84.40;;;;;;3580591;40;20525;-68
2021/05/29 01:10:37;;;;;;;1.95;1.67;;;10.70;84.50;;;;;;3569155;40;20044;-68
2021/05/29 01:13:05;;;;;;;4.93;2.05;;;10.60;84.40;;;;;;3576116;40;20036;-68
2021/05/29 01:15:36;;;;;;;2.13;1.80;;;10.60;84.40;;;;;;3574338;40;20029;-68
2021/05/29 01:18:04;;;;;;;3.53;1.75;;;10.60;84.50;;;;;;3573322;40;20028;-67
2021/05/29 01:20:29;;;;;;;3.75;2.33;;;10.60;84.50;;;;;;3569183;40;20646;-68
2021/05/29 01:22:57;;;;;;;2.53;2.03;;;10.50;84.30;;;;;;3571803;40;20036;-68
2021/05/29 01:25:37;;;;;;;4.38;2.10;;;10.50;84.40;;;;;;3572855;40;20084;-67
2021/05/29 01:28:07;;;;;;;2.75;1.73;;;10.40;84.40;;;;;;3575101;40;20078;-68
2021/05/29 01:30:41;;;;;;;4.03;1.92;;;10.40;84.60;;;;;;3573203;40;20137;-68
2021/05/29 01:33:10;;;;;;;2.25;1.98;;;10.40;84.80;;;;;;3572810;40;20029;-68
2021/05/29 01:35:37;;;;;;;3.28;1.85;;;10.40;84.60;;;;;;3572092;40;20142;-67
2021/05/29 01:38:03;;;;;;;3.35;2.22;;;10.30;84.70;;;;;;3573181;40;20398;-68
2021/05/29 01:40:29;;;;;;;2.85;2.38;;;10.30;84.70;;;;;;3572574;40;20029;-67
2021/05/29 01:42:57;;;;;;;2.13;1.75;;;10.30;84.60;;;;;;3576583;40;20043;-67
2021/05/29 01:45:26;;;;;;;3.17;2.10;;;10.30;84.70;;;;;;3579612;40;20068;-67
2021/05/29 01:47:52;;;;;;;4.00;2.60;;;10.30;84.60;;;;;;3580085;40;20028;-68
2021/05/29 01:50:18;;;;;;;2.72;2.13;;;10.30;84.70;;;;;;3576325;40;20114;-67
2021/05/29 01:52:45;;;;;;;2.97;2.03;;;10.20;84.50;;;;;;3576213;40;20040;-68
2021/05/29 01:55:11;;;;;;;5.55;1.92;;;10.20;84.50;;;;;;3573411;40;20025;-67
2021/05/29 01:57:36;;;;;;;2.67;2.20;;;10.20;84.90;;;;;;3572621;40;20037;-67
2021/05/29 02:00:03;;;;;;;3.00;2.05;;;10.10;84.80;;;;;;3572334;40;20129;-67
2021/05/29 02:02:38;;;;;;;3.03;2.25;;;10.10;85.00;;;;;;3576191;40;20348;-68
2021/05/29 02:05:18;;;;;;;4.43;1.83;;;10.10;85.10;;;;;;3572999;40;20032;-68
2021/05/29 02:07:44;;;;;;;3.42;2.15;;;10.10;85.10;;;;;;3573523;40;20033;-67
2021/05/29 02:10:16;;;;;;;2.88;2.40;;;10.00;85.00;;;;;;3571684;40;20028;-67
2021/05/29 02:12:45;;;;;;;4.10;2.60;;;10.00;84.80;;;;;;3571645;40;20033;-68
2021/05/29 02:15:17;;;;;;;2.50;2.05;;;10.00;84.80;;;;;;3569714;40;20037;-68
2021/05/29 02:17:51;;;;;;;2.80;2.30;;;10.00;85.00;;;;;;3571138;40;20130;-67
2021/05/29 02:20:20;;;;;;;4.25;2.20;;;9.90;85.20;;;;;;3574028;40;20040;-68
2021/05/29 02:22:46;;;;;;;3.33;2.28;;;9.90;84.90;;;;;;3576097;40;20033;-68
2021/05/29 02:25:12;;;;;;;2.85;2.30;;;9.90;84.80;;;;;;3570422;40;20623;-68
2021/05/29 02:27:38;;;;;;;4.93;2.45;;;9.90;84.90;;;;;;3573018;40;20032;-69
2021/05/29 02:30:06;;;;;;;4.65;2.50;;;9.90;85.00;;;;;;3575132;40;20028;-68
2021/05/29 02:32:31;;;;;;;2.72;2.33;;;9.90;85.20;;;;;;3575792;40;20028;-68
2021/05/29 02:34:57;;;;;;;3.38;2.30;;;9.80;84.90;;;;;;3574541;40;20041;-67
2021/05/29 02:37:23;;;;;;;2.83;2.53;;;9.80;85.30;;;;;;3574726;40;20860;-67
2021/05/29 02:39:49;;;;;;;3.92;2.72;;;9.80;85.20;;;;;;3576405;40;20029;-67
2021/05/29 02:42:15;;;;;;;2.80;2.35;;;9.80;85.30;;;;;;3574329;40;20141;-67
2021/05/29 02:44:40;;;;;;;3.55;2.70;;;9.80;85.30;;;;;;3571832;40;20037;-68
2021/05/29 02:47:06;;;;;;;5.38;2.88;;;9.80;85.30;;;;;;3574264;40;20024;-68
2021/05/29 02:49:32;;;;;;;3.58;2.67;;;9.80;85.30;;;;;;3574199;40;20071;-67
2021/05/29 02:51:58;;;;;;;3.97;3.00;;;9.80;85.40;;;;;;3576046;40;20100;-68
2021/05/29 02:54:23;;;;;;;4.97;3.35;;;9.80;85.60;;;;;;3578890;40;20087;-68
2021/05/29 02:56:49;;;;;;;5.10;3.00;;;9.90;85.70;;;;;;3573512;40;20481;-68
2021/05/29 02:59:15;;;;;;;6.65;3.17;;;9.90;85.60;;;;;;3573356;40;20091;-67
2021/05/29 03:01:42;;;;;;;3.83;3.17;;;9.90;85.60;;;;;;3574180;40;20029;-68
2021/05/29 03:04:08;;;;;;;5.20;2.80;;;9.90;85.70;;;;;;3572069;40;20114;-68
2021/05/29 03:06:34;;;;;;;4.32;3.15;;;9.90;85.80;;;;;;3569891;40;20036;-68
2021/05/29 03:09:00;;;;;;;5.15;2.75;;;9.90;85.50;;;;;;3570845;40;20017;-68
2021/05/29 03:11:35;;;;;;;3.60;2.83;;;9.90;85.60;;;;;;3571956;40;20032;-68
2021/05/29 03:14:00;;;;;;;3.85;2.90;;;9.90;85.70;;;;;;3573405;40;20624;-68
2021/05/29 03:16:26;;;;;;;3.92;2.53;;;9.90;85.70;;;;;;3573940;40;20065;-67
2021/05/29 03:18:52;;;;;;;5.40;2.97;;;10.00;85.80;;;;;;3569720;40;20029;-68
2021/05/29 03:21:18;;;;;;;5.00;3.25;;;10.00;86.00;;;;;;3579165;40;20032;-68
2021/05/29 03:23:44;;;;;;;4.13;3.10;;;10.10;86.00;;;;;;3574342;40;20034;-67
2021/05/29 03:26:10;;;;;;;15.13;3.80;;;10.20;85.80;;;;;;3572902;40;20036;-68
2021/05/29 03:28:35;;;;;;;7.40;3.40;;;10.20;85.50;;;;;;3575680;40;20028;-68
2021/05/29 03:31:01;;;;;;;7.03;4.30;;;10.30;85.70;;;;;;3577301;40;20032;-68
2021/05/29 03:33:27;;;;;;;3.97;3.00;;;10.30;86.10;;;;;;3579454;40;20603;-68
2021/05/29 03:35:53;;;;;;;7.68;3.75;;;10.30;86.80;;;;;;3576122;40;20052;-68
2021/05/29 03:38:19;;;;;;;3.88;3.30;;;10.40;86.10;;;;;;3576461;40;20040;-67
2021/05/29 03:40:46;;;;;;;7.00;4.22;;;10.50;86.20;;;;;;3574432;40;20088;-69
2021/05/29 03:43:12;;;;;;;10.88;5.35;;;10.60;86.30;;;;;;3571380;40;20041;-68
2021/05/29 03:45:38;;;;;;;5.78;3.72;;;10.70;86.30;;;;;;3573454;40;20110;-67
2021/05/29 03:48:04;;;;;;;6.88;4.18;;;10.80;86.20;;;;;;3575547;40;20047;-68
2021/05/29 03:50:30;;;;;;;7.18;4.53;;;10.90;86.00;;;;;;3572562;40;20028;-68
2021/05/29 03:52:56;;;;;;;9.60;4.95;;;11.00;86.00;;;;;;3576202;40;20061;-68
2021/05/29 03:55:22;;;;;;;7.93;4.80;;;11.10;85.80;;;;;;3577135;40;20041;-68
2021/05/29 03:57:49;;;;;;;6.72;4.07;;;11.20;85.20;;;;;;3576804;40;20021;-68
2021/05/29 04:00:19;;;;;;;10.30;4.43;;;11.30;85.10;;;;;;3580100;40;20040;-68
2021/05/29 04:02:49;;;;;;;8.52;5.50;;;11.40;84.60;;;;;;3577953;40;20036;-68
2021/05/29 04:05:16;;;;;;;11.32;6.13;;;11.40;84.50;;;;;;3577427;40;20360;-68
2021/05/29 04:07:42;;;;;;;8.68;6.13;;;11.50;84.10;;;;;;3574478;40;20816;-68
2021/05/29 04:10:10;;;;;;;11.20;6.45;;;11.50;84.30;;;;;;3573443;40;20032;-68
2021/05/29 04:12:36;;;;;;;11.23;6.97;;;11.50;84.40;;;;;;3569823;40;20061;-68
2021/05/29 04:15:04;;;;;;;13.98;7.00;;;11.60;85.00;;;;;;3571615;40;20029;-68
2021/05/29 04:17:30;;;;;;;18.25;7.75;;;11.60;84.20;;;;;;3573026;40;20056;-68
2021/05/29 04:19:55;;;;;;;12.90;6.57;;;11.70;84.00;;;;;;3575416;40;20306;-68
2021/05/29 04:22:21;;;;;;;14.00;7.82;;;11.70;84.00;;;;;;3573885;40;20459;-67
2021/05/29 04:24:49;;;;;;;12.52;7.97;;;11.80;84.00;;;;;;3572612;40;20037;-68
2021/05/29 04:27:16;;;;;;;17.63;8.32;;;11.80;83.90;;;;;;3571535;40;20037;-67
2021/05/29 04:29:42;;;;;;;15.63;9.02;;;11.80;83.80;;;;;;3574395;40;20028;-68
2021/05/29 04:32:08;;;;;;;13.07;8.07;;;11.90;83.50;;;;;;3573841;40;20035;-68
2021/05/29 04:34:34;;;;;;;17.70;8.88;;;11.90;83.30;;;;;;3572725;40;20033;-67
2021/05/29 04:37:00;;;;;;;16.73;9.80;;;11.90;83.10;;;;;;3584865;40;20410;-68
2021/05/29 04:39:26;;;;;;;18.25;9.10;;;11.90;82.60;;;;;;3578099;40;20085;-68
2021/05/29 04:41:52;;;;;;;15.18;8.38;;;11.90;82.90;;;;;;3578945;40;20079;-68
2021/05/29 04:44:17;;;;;;;12.10;7.32;;;11.90;83.40;;;;;;3574488;40;20025;-68
2021/05/29 04:46:51;;;;;;;11.43;7.20;;;11.90;83.00;;;;;;3574187;40;20031;-68
2021/05/29 04:49:21;;;;;;;9.73;6.90;;;11.90;83.00;;;;;;3576648;40;20033;-68
2021/05/29 04:51:47;;;;;;;12.80;7.50;;;12.00;83.10;;;;;;3571122;40;20032;-67
2021/05/29 04:54:13;;;;;;;10.20;6.95;;;12.10;82.60;;;;;;3576384;40;20056;-67
2021/05/29 04:56:39;;;;;;;9.23;6.13;;;12.10;82.20;;;;;;3576823;40;20067;-67
2021/05/29 04:59:05;;;;;;;12.25;6.97;;;12.10;81.60;;;;;;3576649;40;20029;-68
2021/05/29 05:01:32;;;;;;;11.50;6.75;;;12.10;81.60;;;;;;3575428;40;20029;-67
2021/05/29 05:04:02;;;;;;;12.90;7.10;;;12.20;81.80;;;;;;3576114;40;20030;-68
2021/05/29 05:06:28;;;;;;;11.98;6.78;;;12.20;81.30;;;;;;3567796;40;20025;-67
2021/05/29 05:08:54;;;;;;;13.13;6.65;;;12.20;81.30;;;;;;3572485;40;20039;-68
2021/05/29 05:11:20;;;;;;;11.98;6.57;;;12.20;81.30;;;;;;3573717;40;20064;-68
2021/05/29 05:13:46;;;;;;;14.05;6.72;;;12.20;81.20;;;;;;3575240;40;20045;-68
2021/05/29 05:16:13;;;;;;;13.30;7.93;;;12.20;80.40;;;;;;3573663;40;20414;-68
2021/05/29 05:18:38;;;;;;;10.50;6.82;;;12.20;80.60;;;;;;3575127;40;20110;-67
2021/05/29 05:21:04;;;;;;;12.20;7.53;;;12.20;80.40;;;;;;3568997;40;20128;-68
2021/05/29 05:23:30;;;;;;;17.65;7.63;;;12.20;80.50;;;;;;3576995;40;20021;-68
2021/05/29 05:25:56;;;;;;;11.73;6.95;;;12.10;80.50;;;;;;3572544;40;20129;-67
2021/05/29 05:28:27;;;;;;;14.25;7.53;;;12.10;80.80;;;;;;3573413;40;20033;-68
2021/05/29 05:30:57;;;;;;;11.48;6.70;;;12.10;80.60;;;;;;3570545;40;20020;-68
2021/05/29 05:33:24;;;;;;;15.07;7.57;;;12.00;80.50;;;;;;3570557;40;20057;-68
2021/05/29 05:35:51;;;;;;;14.27;7.25;;;12.00;80.90;;;;;;3570038;40;20017;-68
2021/05/29 05:38:17;;;;;;;11.50;7.10;;;12.00;81.30;;;;;;3573798;40;20675;-68
2021/05/29 05:40:42;;;;;;;10.43;6.85;;;12.00;81.40;;;;;;3574524;40;20031;-68
2021/05/29 05:43:09;;;;;;;13.73;7.00;;;12.10;81.00;;;;;;3577002;40;20301;-68
2021/05/29 05:45:35;;;;;;;14.43;7.47;;;12.10;80.80;;;;;;3579229;40;20041;-68
2021/05/29 05:48:00;;;;;;;16.20;8.00;;;12.10;81.20;;;;;;3577281;40;20319;-68
2021/05/29 05:50:26;;;;;;;15.52;8.30;;;12.10;81.00;;;;;;3569328;40;20040;-68
2021/05/29 05:52:52;;;;;;;13.05;7.32;;;12.10;80.90;;;;;;3575556;40;20025;-68
2021/05/29 05:55:18;;;;;;;14.65;8.27;;;12.00;81.30;;;;;;3572484;40;20516;-68
2021/05/29 05:57:44;;;;;;;13.57;7.50;;;12.00;81.70;;;;;;3574712;40;20047;-68
2021/05/29 06:00:13;;;;;;;12.02;7.78;;;12.10;81.70;;;;;;3570853;40;20081;-68
2021/05/29 06:02:39;;;;;;;14.35;8.30;;;12.10;80.70;;;;;;3576032;40;20033;-68
2021/05/29 06:05:05;;;;;;;13.95;8.35;;;12.20;81.60;;;;;;3574478;40;20359;-68
2021/05/29 06:07:31;;;;;;;14.48;8.48;;;12.20;81.60;;;;;;3575315;40;20035;-68
2021/05/29 06:09:57;;;;;;;13.98;9.05;;;12.20;81.70;;;;;;3573405;40;20505;-68
2021/05/29 06:12:23;;;;;;;14.23;8.52;;;12.20;82.00;;;;;;3569335;40;20041;-68
2021/05/29 06:20:18;;;;;;;17.10;10.10;;;12.20;82.40;;;;;;3572443;40;20146;-67
2021/05/29 06:22:43;;;;;;;16.00;9.40;;;12.20;82.40;;;;;;3573931;40;20077;-67
2021/05/29 06:25:11;;;;;;;16.25;9.85;;;12.30;81.90;;;;;;3573037;40;20690;-68
2021/05/29 06:27:37;;;;;;;17.52;9.70;;;12.20;82.00;;;;;;3566788;40;20028;-68
2021/05/29 06:30:05;;;;;;;19.60;10.23;;;12.20;82.60;;;;;;3571649;40;20121;-68
2021/05/29 06:32:31;;;;;;;14.50;9.18;;;12.30;82.80;;;;;;3575103;40;20025;-68
2021/05/29 06:34:57;;;;;;;16.08;9.82;;;12.30;82.50;;;;;;3574659;40;20060;-67
2021/05/29 06:37:23;;;;;;;16.30;9.68;;;12.30;82.80;;;;;;3573421;40;20166;-67
2021/05/29 06:39:49;;;;;;;18.92;9.63;;;12.30;82.60;;;;;;3572614;40;20033;-68
2021/05/29 06:42:14;;;;;;;15.38;9.88;;;12.40;82.80;;;;;;3572141;40;20044;-68
2021/05/29 06:44:40;;;;;;;17.73;9.82;;;12.50;82.50;;;;;;3573960;40;20124;-68
2021/05/29 06:47:06;;;;;;;18.48;9.85;;;12.50;82.40;;;;;;3574716;40;20041;-68
2021/05/29 06:49:35;;;;;;;18.00;10.45;;;12.60;82.10;;;;;;3567070;40;20041;-71
2021/05/29 06:52:09;;;;;;;16.15;8.93;;;12.70;81.80;;;;;;3570560;40;20172;-72
2021/05/29 06:54:44;;;;;;;16.35;9.20;;;12.70;81.20;;;;;;3576173;40;20041;-67
2021/05/29 06:59:55;;;;;;;16.90;8.93;;;12.80;81.20;;;;;;3573344;40;20049;-67
2021/05/29 07:02:21;;;;;;;14.77;8.85;;;12.90;81.00;;;;;;3571851;40;20033;-68
2021/05/29 07:04:47;;;;;;;16.63;8.95;;;13.00;80.70;;;;;;3568876;40;20323;-67
2021/05/29 07:07:12;;;;;;;18.83;9.50;;;13.10;80.30;;;;;;3573068;40;20345;-68
2021/05/29 07:09:38;;;;;;;16.63;9.23;;;13.10;80.20;;;;;;3572943;40;20303;-68
2021/05/29 07:12:04;;;;;;;14.70;8.55;;;13.20;79.70;;;;;;3573257;40;20044;-69
2021/05/29 07:14:30;;;;;;;16.50;8.48;;;13.40;79.70;;;;;;3573770;40;20421;-68
2021/05/29 07:16:56;;;;;;;19.95;9.38;;;13.50;78.50;;;;;;3576499;40;20033;-69
2021/05/29 07:19:23;;;;;;;21.67;9.57;;;13.50;78.20;;;;;;3578360;40;20040;-69
2021/05/29 07:21:49;;;;;;;18.38;10.48;;;13.50;78.20;;;;;;3571730;40;20045;-66
2021/05/29 07:24:16;;;;;;;19.75;11.50;;;13.50;78.40;;;;;;3576497;40;20608;-70
2021/05/29 07:26:41;;;;;;;19.08;12.27;;;13.50;78.50;;;;;;3574688;40;20040;-69
2021/05/29 07:29:07;;;;;;;18.80;11.32;;;13.50;79.00;;;;;;3575199;40;20040;-69
2021/05/29 07:31:33;;;;;;;18.42;11.45;;;13.60;79.00;;;;;;3570093;40;20553;-69
2021/05/29 07:33:59;;;;;;;18.65;10.98;;;13.70;78.40;;;;;;3576762;40;20041;-70
2021/05/29 07:36:25;;;;;;;18.40;10.77;;;13.70;78.00;;;;;;3573079;40;20619;-69
2021/05/29 07:38:51;;;;;;;18.38;11.25;;;13.80;77.40;;;;;;3575474;40;20064;-70
2021/05/29 07:41:17;;;;;;;22.42;10.45;;;13.80;77.30;;;;;;3569805;40;20800;-68
2021/05/29 07:43:43;;;;;;;16.83;9.50;;;13.80;76.90;;;;;;3576327;40;20138;-68
2021/05/29 07:46:09;;;;;;;17.15;9.45;;;13.90;77.60;;;;;;3576467;40;20033;-66
2021/05/29 07:48:37;;;;;;;15.50;8.10;;;14.00;76.50;;;;;;3572933;40;20028;-66
2021/05/29 07:51:03;;;;;;;16.45;9.45;;;14.00;76.40;;;;;;3573904;40;20052;-66
2021/05/29 07:53:37;;;;;;;16.60;9.15;;;14.00;76.50;;;;;;3574147;40;20032;-66
2021/05/29 07:56:09;;;;;;;17.45;8.95;;;14.00;75.20;;;;;;3573235;40;20036;-66
2021/05/29 07:58:35;;;;;;;13.55;8.60;;;14.00;76.00;;;;;;3575934;40;20411;-66
2021/05/29 08:01:01;;;;;;;17.10;9.15;;;13.90;77.00;;;;;;3572809;40;20029;-67
2021/05/29 08:03:29;;;;;;;15.43;8.57;;;14.00;77.30;;;;;;3575108;40;20044;-66
2021/05/29 08:05:55;;;;;;;17.05;8.98;;;14.00;76.70;;;;;;3575548;40;20499;-66
2021/05/29 08:08:23;;;;;;;16.38;9.02;;;14.00;75.70;;;;;;3574724;40;20079;-67
2021/05/29 08:10:50;;;;;;;16.25;7.82;;;13.90;76.10;;;;;;3575016;40;20103;-68
2021/05/29 08:13:17;;;;;;;14.63;7.95;;;13.90;76.60;;;;;;3576875;40;20025;-67
2021/05/29 08:15:44;;;;;;;13.48;8.25;;;13.90;76.40;;;;;;3576853;40;20036;-67
2021/05/29 08:18:11;;;;;;;15.68;7.82;;;13.90;76.10;;;;;;3574785;40;20788;-67
2021/05/29 08:20:37;;;;;;;16.88;7.72;;;13.90;76.20;;;;;;3573875;40;20401;-68
2021/05/29 08:23:04;;;;;;;17.65;8.57;;;13.90;76.40;;;;;;3573928;40;20100;-69
2021/05/29 08:25:30;;;;;;;14.65;7.95;;;13.90;76.00;;;;;;3575161;40;20039;-65
2021/05/29 08:27:56;;;;;;;14.20;7.82;;;13.90;75.10;;;;;;3578117;40;20029;-64
2021/05/29 08:30:22;;;;;;;12.25;6.93;;;13.90;75.70;;;;;;3573247;40;20028;-63
2021/05/29 08:32:48;;;;;;;13.23;7.63;;;13.90;75.60;;;;;;3574173;40;20129;-63
2021/05/29 08:35:14;;;;;;;14.57;8.00;;;14.00;76.10;;;;;;3575333;40;20300;-66
2021/05/29 08:37:42;;;;;;;11.27;7.35;;;14.10;75.80;;;;;;3572695;40;20150;-67
2021/05/29 08:40:09;;;;;;;12.70;7.70;;;14.10;75.90;;;;;;3576121;40;20045;-64
2021/05/29 08:42:35;;;;;;;12.18;7.68;;;14.10;74.80;;;;;;3573781;40;20033;-67
2021/05/29 08:45:01;;;;;;;17.45;8.23;;;14.10;75.40;;;;;;3574104;40;20411;-64
2021/05/29 08:47:27;;;;;;;13.07;7.70;;;14.10;75.40;;;;;;3573684;40;20044;-66
2021/05/29 08:49:54;;;;;;;11.35;7.63;;;14.10;76.10;;;;;;3573289;40;20027;-64
2021/05/29 08:52:20;;;;;;;15.73;8.38;;;14.10;75.80;;;;;;3570883;40;20040;-66
2021/05/29 08:54:46;;;;;;;12.50;7.30;;;14.30;75.60;;;;;;3572142;40;20061;-67
2021/05/29 08:57:18;;;;;;;13.18;8.07;;;14.40;75.50;;;;;;3574401;40;20037;-66
2021/05/29 08:59:44;;;;;;;14.35;7.13;;;14.60;74.10;;;;;;3576828;40;20032;-64
2021/05/29 09:02:11;;;;;;;14.20;7.68;;;14.60;73.40;;;;;;3573033;40;20126;-66
2021/05/29 09:05:04;;;;;;;12.50;7.18;;;14.70;73.30;;;;;;3576363;40;20035;-67
2021/05/29 09:07:30;;;;;;;13.30;7.32;;;14.80;72.90;;;;;;3575595;40;20109;-67
2021/05/29 09:10:16;;;;;;;10.70;6.68;;;14.80;73.20;;;;;;3573001;40;20897;-69
2021/05/29 09:13:05;;;;;;;11.40;7.40;;;14.90;72.80;;;;;;3572593;40;20044;-67
2021/05/29 09:15:45;;;;;;;14.82;7.63;;;14.90;71.80;;;;;;3574648;40;20032;-68
2021/05/29 09:18:28;;;;;;;10.73;7.18;;;14.90;71.90;;;;;;3574050;40;20248;-68
2021/05/29 09:21:14;;;;;;;11.02;6.88;;;15.00;72.00;;;;;;3571072;40;20045;-67
2021/05/29 09:23:49;;;;;;;10.68;7.50;;;15.10;72.00;;;;;;3573712;40;20072;-67
2021/05/29 09:26:15;;;;;;;13.55;7.13;;;15.20;70.80;;;;;;3570829;40;20040;-67
2021/05/29 09:28:43;;;;;;;15.40;7.75;;;15.20;71.00;;;;;;3573702;40;20350;-67
2021/05/29 09:31:15;;;;;;;12.95;7.13;;;15.20;70.60;;;;;;3569482;40;20446;-68
2021/05/29 09:33:45;;;;;;;15.82;7.05;;;15.30;70.40;;;;;;3575999;40;20693;-67
2021/05/29 09:36:14;;;;;;;12.50;7.53;;;15.30;70.00;;;;;;3573868;40;20052;-66
2021/05/29 09:38:55;;;;;;;14.82;7.13;;;15.40;69.90;;;;;;3574680;40;20025;-67
2021/05/29 09:41:30;;;;;;;12.18;6.53;;;15.50;69.30;;;;;;3570567;40;20092;-67
2021/05/29 09:44:05;;;;;;;9.43;6.75;;;15.60;69.10;;;;;;3579708;40;20032;-67
2021/05/29 09:46:49;;;;;;;9.13;6.50;;;15.70;67.80;;;;;;3574187;40;20125;-65
2021/05/29 09:49:15;;;;;;;11.55;7.28;;;15.80;68.40;;;;;;3576186;40;20062;-68
2021/05/29 09:51:41;;;;;;;12.82;7.07;;;16.00;67.60;;;;;;3573893;40;20041;-67
2021/05/29 09:54:09;;;;;;;9.25;6.30;;;16.20;67.40;;;;;;3577696;40;20032;-75
2021/05/29 09:56:41;;;;;;;7.72;5.80;;;16.50;67.30;;;;;;3577935;40;20025;-67
2021/05/29 09:59:08;;;;;;;9.68;6.28;;;16.70;65.80;;;;;;3569808;40;20033;-69
2021/05/29 10:01:36;;;;;;;11.15;5.78;;;16.80;65.20;;;;;;3572949;40;20037;-67
2021/05/29 10:04:03;;;;;;;13.20;5.63;;;17.00;64.40;;;;;;3574553;40;20057;-68
2021/05/29 10:06:29;;;;;;;9.98;6.40;;;17.10;63.60;;;;;;3574445;40;20037;-67
2021/05/29 10:08:55;;;;;;;9.48;5.85;;;17.00;63.20;;;;;;3578477;40;20143;-67
2021/05/29 10:11:21;;;;;;;10.48;6.07;;;16.70;63.80;;;;;;3577347;40;20033;-67
2021/05/29 10:13:47;;;;;;;9.00;5.70;;;16.60;63.80;;;;;;3573195;40;20091;-67
2021/05/29 10:16:14;;;;;;;8.88;6.10;;;16.40;63.50;;;;;;3573049;40;20040;-69
2021/05/29 10:18:49;;;;;;;12.02;6.20;;;16.20;65.30;;;;;;3574381;40;20029;-67
2021/05/29 10:21:18;;;;;;;11.00;6.13;;;16.30;65.20;;;;;;3568372;40;20086;-67
2021/05/29 10:23:46;;;;;;;11.90;6.07;;;16.30;65.70;;;;;;3570794;40;20137;-67
2021/05/29 10:26:15;;;;;;;12.45;5.70;;;16.30;64.70;;;;;;3571072;40;20391;-67
2021/05/29 10:28:41;;;;;;;11.18;5.93;;;16.20;64.90;;;;;;3573915;40;20040;-68
2021/05/29 10:31:07;;;;;;;9.68;6.30;;;16.20;65.60;;;;;;3574512;40;20020;-67
2021/05/29 10:33:44;;;;;;;9.82;6.30;;;16.10;66.60;;;;;;3577244;40;20040;-67
2021/05/29 10:36:48;;;;;;;10.50;6.28;;;16.10;67.30;;;;;;3573876;40;20025;-68
2021/05/29 10:39:24;;;;;;;10.82;6.80;;;16.10;66.40;;;;;;3574103;40;20044;-67
2021/05/29 10:42:02;;;;;;;11.77;7.05;;;16.00;67.30;;;;;;3572385;40;20036;-67
2021/05/29 10:44:33;;;;;;;9.48;6.10;;;16.00;67.00;;;;;;3574830;40;20307;-67
2021/05/29 10:47:19;;;;;;;10.27;5.75;;;16.10;66.90;;;;;;3572327;40;20043;-67
2021/05/29 10:49:52;;;;;;;11.38;5.68;;;16.20;66.50;;;;;;3571095;40;20035;-67
2021/05/29 10:52:31;;;;;;;13.80;6.25;;;16.50;66.50;;;;;;3570845;40;20091;-67
2021/05/29 10:55:08;;;;;;;9.23;6.43;;;16.50;65.10;;;;;;3572859;40;20585;-67
2021/05/29 10:57:54;;;;;;;9.90;6.18;;;16.40;65.50;;;;;;3573618;40;20025;-67
2021/05/29 11:00:35;;;;;;;14.63;6.50;;;16.40;65.90;;;;;;3573671;40;20033;-64
2021/05/29 11:03:16;;;;;;;11.00;6.55;;;16.30;65.20;;;;;;3576822;40;20125;-67
2021/05/29 11:05:46;;;;;;;11.77;6.45;;;16.20;65.60;;;;;;3576436;40;20058;-67
2021/05/29 11:08:44;;;;;;;13.93;6.32;;;16.20;65.80;;;;;;3573119;40;20029;-67
2021/05/29 11:11:38;;;;;;;14.82;6.50;;;16.10;65.80;;;;;;3571994;40;20326;-64
2021/05/29 11:14:08;;;;;;;8.90;5.60;;;16.00;65.20;;;;;;3577416;40;20025;-67
2021/05/29 11:16:46;;;;;;;8.75;5.90;;;16.00;66.00;;;;;;3574816;40;20037;-67
2021/05/29 11:19:17;;;;;;;11.10;6.45;;;16.30;66.10;;;;;;3578306;40;20425;-68
2021/05/29 11:22:12;;;;;;;8.32;5.13;;;16.50;64.70;;;;;;3574252;40;20083;-67
2021/05/29 11:24:57;;;;;;;8.27;5.38;;;16.80;64.20;;;;;;3575032;40;20139;-67
2021/05/29 11:27:22;;;;;;;9.05;3.92;;;16.80;63.00;;;;;;3570081;40;20036;-67
2021/05/29 11:29:49;;;;;;;9.05;4.75;;;16.90;63.70;;;;;;3572320;40;20127;-67
2021/05/29 11:32:16;;;;;;;10.40;5.47;;;16.90;63.50;;;;;;3578382;40;20056;-67
2021/05/29 11:34:43;;;;;;;7.78;4.60;;;17.10;62.20;;;;;;3572084;40;20068;-67
2021/05/29 11:37:15;;;;;;;6.75;4.13;;;17.20;62.20;;;;;;3573954;40;20042;-67
2021/05/29 11:39:51;;;;;;;10.55;5.00;;;17.30;62.40;;;;;;3572074;40;20048;-67
2021/05/29 11:42:17;;;;;;;7.85;4.78;;;17.40;62.00;;;;;;3570697;40;20085;-67
2021/05/29 11:44:43;;;;;;;15.13;5.43;;;17.30;62.70;;;;;;3572177;40;20029;-69
2021/05/29 11:47:16;;;;;;;10.55;5.20;;;17.20;61.90;;;;;;3576183;40;20029;-67
2021/05/29 11:49:42;;;;;;;8.73;5.15;;;17.10;62.40;;;;;;3573896;40;20187;-67
2021/05/29 11:52:08;;;;;;;10.88;4.93;;;17.00;62.60;;;;;;3574536;40;20494;-67
2021/05/29 11:54:36;;;;;;;12.48;5.47;;;16.90;63.10;;;;;;3577661;40;20791;-67
2021/05/29 11:57:04;;;;;;;9.73;4.78;;;16.90;63.20;;;;;;3568850;40;20065;-67
2021/05/29 11:59:32;;;;;;;9.02;4.78;;;17.00;62.80;;;;;;3574739;40;20069;-67
2021/05/29 12:01:58;;;;;;;9.57;4.85;;;17.00;61.20;;;;;;3574671;40;20029;-67
2021/05/29 12:04:27;;;;;;;9.68;4.65;;;17.00;62.20;;;;;;3574030;40;20025;-67
2021/05/29 12:07:00;;;;;;;8.88;4.30;;;17.10;62.00;;;;;;3572269;40;20025;-67
2021/05/29 12:09:34;;;;;;;8.45;5.00;;;17.20;61.70;;;;;;3568503;40;20033;-67
2021/05/29 12:12:07;;;;;;;7.40;4.45;;;17.30;61.70;;;;;;3576141;40;20040;-67
2021/05/29 12:14:34;;;;;;;8.90;4.80;;;17.40;60.90;;;;;;3578276;40;20047;-67
2021/05/29 12:17:02;;;;;;;6.82;4.50;;;17.70;61.00;;;;;;3575790;40;20070;-68
2021/05/29 12:19:29;;;;;;;6.43;4.45;;;17.80;60.20;;;;;;3575415;40;20815;-68
2021/05/29 12:22:16;;;;;;;6.00;4.13;;;17.80;59.90;;;;;;3575533;40;20132;-67
2021/05/29 12:25:02;;;;;;;8.90;4.57;;;17.80;60.00;;;;;;3571985;40;20119;-67
2021/05/29 12:27:30;;;;;;;10.43;4.60;;;17.60;60.00;;;;;;3573264;40;20025;-67
2021/05/29 12:30:24;;;;;;;10.20;4.70;;;17.70;60.00;;;;;;3574908;40;20055;-67
2021/05/29 12:32:49;;;;;;;10.02;4.53;;;17.70;59.20;;;;;;3573049;40;20040;-67
2021/05/29 12:35:30;;;;;;;8.73;3.97;;;17.60;59.40;;;;;;3579977;40;20133;-67
2021/05/29 12:38:06;;;;;;;6.07;4.82;;;17.60;60.30;;;;;;3580128;40;20033;-67
2021/05/29 12:40:32;;;;;;;6.57;4.20;;;17.70;60.10;;;;;;3575425;40;20087;-67
2021/05/29 12:42:58;;;;;;;11.73;4.38;;;17.90;61.30;;;;;;3574686;40;20037;-67
2021/05/29 12:45:27;;;;;;;5.65;3.92;;;18.20;60.00;;;;;;3574694;40;20727;-67
2021/05/29 12:47:55;;;;;;;7.88;3.83;;;18.40;59.80;;;;;;3577970;40;20029;-67
2021/05/29 12:50:59;;;;;;;6.43;4.30;;;18.60;58.50;;;;;;3575629;40;20029;-67
2021/05/29 12:53:28;;;;;;;6.00;3.95;;;18.50;57.50;;;;;;3574463;40;20422;-67
2021/05/29 12:56:10;;;;;;;6.63;4.30;;;18.30;58.70;;;;;;3572377;40;20028;-67
2021/05/29 12:58:36;;;;;;;6.15;3.85;;;18.00;59.30;;;;;;3574556;40;20069;-67
2021/05/29 13:09:40;;;;;;;9.52;5.40;;;18.30;59.10;;;;;;3573354;40;20033;-67